Salobrena, Spain
Current Conditions -  °F | °C
As of 9:30 AM on Sunday 21 Dec 2014 (Local Time) from LEGR Reporting Station
Few Clouds Few Clouds  
Wind Chill: 34°   Ceiling: Unl
Heat Index: 34°   Visibility: 5mi
Dew Point: 32°   Wind: 0mph
Humidity: 93%   Direction: NA
Pressure: 30.48"   Gusts: NA
Location:  36.74°N, 3.59°W
Report Text: LEGR 210830Z 00000KT 8000 FEW010 01/00 Q1032
Loading
Personal Weather Stations






























Interactive Weather Map New forecast layout! Learn more

10-Day Weather Forecast

Advertisements
Track Severe Weather on mobile